Time;durP1;ratioP1;P1;durP2;ratioP2;P2;SDS_P1;SDS_P2;PMS_P1;PMS_P2;Temp;Humidity;BMP_temperature;BMP_pressure;BME280_temperature;BME280_humidity;BME280_pressure;Samples;Min_cycle;Max_cycle;Signal;HPM_P1;HPM_P2
2021/12/12 00:01:24;;;;;;;18.43;9.17;;;;;;;;;;4960933;28;20136;-90
2021/12/12 00:06:53;;;;;;;14.35;8.05;;;;;;;;;;4966908;28;20051;-89
2021/12/12 00:09:25;;;;;;;17.42;7.85;;;;;;;;;;4980855;28;20066;-89
2021/12/12 00:11:55;;;;;;;18.85;8.02;;;;;;;;;;4955860;28;20081;-90
2021/12/12 00:14:43;;;;;;;18.97;7.80;;;;;;;;;;4969762;28;20097;-89
2021/12/12 00:17:14;;;;;;;26.50;8.40;;;;;;;;;;4975696;28;20053;-90
2021/12/12 00:19:44;;;;;;;20.88;8.45;;;;;;;;;;4963139;28;20047;-89
2021/12/12 00:22:22;;;;;;;24.02;9.68;;;;;;;;;;4958421;28;20197;-90
2021/12/12 00:24:55;;;;;;;21.13;8.45;;;;;;;;;;4960033;28;20050;-89
2021/12/12 00:27:29;;;;;;;19.43;8.07;;;;;;;;;;4961175;28;20062;-90
2021/12/12 00:30:03;;;;;;;17.48;8.30;;;;;;;;;;4956041;28;20495;-89
2021/12/12 00:32:39;;;;;;;21.20;8.77;;;;;;;;;;4955915;28;20046;-90
2021/12/12 00:35:10;;;;;;;19.35;8.55;;;;;;;;;;4952340;28;20100;-89
2021/12/12 00:37:44;;;;;;;29.08;8.93;;;;;;;;;;4961927;28;20055;-90
2021/12/12 00:40:18;;;;;;;20.43;9.43;;;;;;;;;;4961692;28;20533;-90
2021/12/12 00:42:52;;;;;;;19.00;9.32;;;;;;;;;;4947866;28;20485;-90
2021/12/12 00:45:27;;;;;;;25.42;8.15;;;;;;;;;;4951340;28;20073;-90
2021/12/12 00:47:59;;;;;;;14.40;7.20;;;;;;;;;;4944808;28;20137;-90
2021/12/12 00:50:32;;;;;;;17.08;8.70;;;;;;;;;;4945729;28;20115;-90
2021/12/12 00:53:02;;;;;;;17.17;8.03;;;;;;;;;;4947308;28;20578;-90
2021/12/12 00:55:37;;;;;;;21.33;8.63;;;;;;;;;;4940281;28;20059;-90
2021/12/12 00:58:08;;;;;;;22.48;8.95;;;;;;;;;;4961297;28;20050;-90
2021/12/12 01:00:48;;;;;;;20.08;8.25;;;;;;;;;;4955293;28;20153;-90
2021/12/12 01:03:28;;;;;;;21.38;8.98;;;;;;;;;;4962473;28;20138;-90
2021/12/12 01:06:01;;;;;;;19.53;7.47;;;;;;;;;;4946779;28;20043;-90
2021/12/12 01:08:33;;;;;;;16.77;6.57;;;;;;;;;;4947931;28;20486;-89
2021/12/12 01:11:06;;;;;;;18.45;8.85;;;;;;;;;;4952467;28;20204;-90
2021/12/12 01:13:39;;;;;;;15.73;8.50;;;;;;;;;;4949109;28;20050;-89
2021/12/12 01:16:16;;;;;;;16.90;6.68;;;;;;;;;;4950220;28;20046;-90
2021/12/12 01:18:52;;;;;;;16.20;7.27;;;;;;;;;;4973766;28;20086;-90
2021/12/12 01:21:29;;;;;;;20.65;7.93;;;;;;;;;;4984928;28;20050;-88
2021/12/12 01:24:03;;;;;;;20.17;7.75;;;;;;;;;;4985093;28;20074;-90
2021/12/12 01:26:40;;;;;;;18.63;8.52;;;;;;;;;;4969460;28;20055;-89
2021/12/12 01:29:16;;;;;;;17.23;6.35;;;;;;;;;;4958623;28;20050;-88
2021/12/12 01:34:42;;;;;;;21.40;8.02;;;;;;;;;;4969485;28;20062;-89
2021/12/12 01:37:34;;;;;;;20.95;7.47;;;;;;;;;;4966416;28;20047;-89
2021/12/12 01:40:07;;;;;;;13.82;6.35;;;;;;;;;;4969421;28;20074;-89
2021/12/12 01:42:42;;;;;;;17.02;7.03;;;;;;;;;;4964539;28;20046;-89
2021/12/12 01:45:19;;;;;;;25.73;8.03;;;;;;;;;;4972883;28;20047;-90
2021/12/12 01:47:51;;;;;;;17.20;6.90;;;;;;;;;;4980133;28;20046;-89
2021/12/12 01:50:27;;;;;;;14.80;7.32;;;;;;;;;;4963944;28;20054;-89
2021/12/12 01:52:59;;;;;;;12.75;6.45;;;;;;;;;;4956662;28;20063;-90
2021/12/12 01:55:55;;;;;;;13.07;6.20;;;;;;;;;;4972820;28;20053;-89
2021/12/12 01:58:31;;;;;;;18.70;7.20;;;;;;;;;;4986803;28;20058;-90
2021/12/12 02:01:28;;;;;;;19.98;8.38;;;;;;;;;;4963479;28;20061;-89
2021/12/12 02:04:00;;;;;;;15.05;6.53;;;;;;;;;;4961260;28;20097;-89
2021/12/12 02:06:32;;;;;;;17.90;6.93;;;;;;;;;;4970860;28;20130;-89
2021/12/12 02:09:02;;;;;;;19.15;6.95;;;;;;;;;;4960276;28;20465;-89
2021/12/12 02:11:33;;;;;;;10.73;5.20;;;;;;;;;;4978102;28;20053;-89
2021/12/12 02:14:09;;;;;;;15.63;7.05;;;;;;;;;;5001597;28;20060;-90
2021/12/12 02:17:06;;;;;;;15.13;7.50;;;;;;;;;;4994024;28;20155;-89
2021/12/12 02:19:44;;;;;;;17.67;6.28;;;;;;;;;;5000075;28;20046;-90
2021/12/12 02:22:35;;;;;;;16.30;6.72;;;;;;;;;;5003301;28;20050;-90
2021/12/12 02:36:31;;;;;;;15.85;7.35;;;;;;;;;;4987441;28;20179;-90
2021/12/12 02:39:05;;;;;;;13.50;6.77;;;;;;;;;;5002073;28;20140;-89
2021/12/12 02:41:38;;;;;;;17.02;6.45;;;;;;;;;;4992051;28;20042;-90
2021/12/12 02:44:07;;;;;;;16.45;6.43;;;;;;;;;;4970074;28;20129;-90
2021/12/12 02:46:37;;;;;;;13.13;6.00;;;;;;;;;;4990827;28;20455;-90
2021/12/12 02:49:11;;;;;;;12.68;5.57;;;;;;;;;;4973924;28;20136;-90
2021/12/12 02:51:42;;;;;;;17.10;5.93;;;;;;;;;;5006177;28;20085;-89
2021/12/12 02:54:13;;;;;;;16.08;6.63;;;;;;;;;;5004294;28;20173;-90
2021/12/12 02:56:47;;;;;;;14.68;5.95;;;;;;;;;;5004241;28;20436;-89
2021/12/12 02:59:18;;;;;;;16.10;6.75;;;;;;;;;;4984879;28;20129;-89
2021/12/12 03:01:52;;;;;;;18.73;8.65;;;;;;;;;;4986253;28;20045;-89
2021/12/12 03:04:29;;;;;;;13.70;6.80;;;;;;;;;;5008685;28;20053;-90
2021/12/12 03:07:07;;;;;;;15.60;5.78;;;;;;;;;;4986566;28;20054;-90
2021/12/12 03:09:45;;;;;;;10.70;5.38;;;;;;;;;;4993358;28;20046;-90
2021/12/12 03:12:16;;;;;;;14.25;5.78;;;;;;;;;;4986551;28;20050;-89
2021/12/12 03:14:46;;;;;;;11.10;5.60;;;;;;;;;;5000103;28;20065;-90
2021/12/12 03:17:21;;;;;;;11.13;5.97;;;;;;;;;;4985405;28;20042;-89
2021/12/12 03:19:51;;;;;;;13.25;6.53;;;;;;;;;;4990501;28;20137;-90
2021/12/12 03:22:22;;;;;;;18.55;5.55;;;;;;;;;;5001884;28;20065;-90
2021/12/12 03:24:57;;;;;;;14.93;6.50;;;;;;;;;;4987090;28;21854;-89
2021/12/12 03:27:29;;;;;;;17.20;7.30;;;;;;;;;;5002940;28;20061;-90
2021/12/12 03:29:58;;;;;;;15.80;7.13;;;;;;;;;;4971414;28;20096;-90
2021/12/12 03:32:34;;;;;;;18.25;7.30;;;;;;;;;;4999149;28;20077;-89
2021/12/12 03:40:54;;;;;;;14.65;5.85;;;;;;;;;;4972008;28;20049;-90
2021/12/12 03:43:24;;;;;;;23.90;7.27;;;;;;;;;;4987766;28;20060;-89
2021/12/12 03:45:54;;;;;;;15.30;7.05;;;;;;;;;;5006452;28;20053;-89
2021/12/12 03:48:30;;;;;;;16.52;6.97;;;;;;;;;;4987548;28;20085;-89
2021/12/12 03:51:03;;;;;;;17.63;6.20;;;;;;;;;;4991921;28;20136;-90
2021/12/12 03:53:37;;;;;;;17.73;8.30;;;;;;;;;;5002516;28;20064;-90
2021/12/12 03:56:16;;;;;;;15.50;6.83;;;;;;;;;;4999776;28;20046;-90
2021/12/12 03:58:49;;;;;;;23.65;8.43;;;;;;;;;;4986946;28;20056;-89
2021/12/12 04:01:22;;;;;;;16.75;6.88;;;;;;;;;;4980366;28;20057;-90
2021/12/12 04:03:53;;;;;;;16.38;7.75;;;;;;;;;;4994933;28;20104;-89
2021/12/12 04:06:25;;;;;;;14.30;6.93;;;;;;;;;;4971691;28;20501;-89
2021/12/12 04:08:55;;;;;;;21.07;7.33;;;;;;;;;;4998462;28;20477;-89
2021/12/12 04:11:29;;;;;;;13.18;6.10;;;;;;;;;;5003095;28;20058;-89
2021/12/12 04:13:59;;;;;;;10.23;4.75;;;;;;;;;;5002155;28;20081;-89
2021/12/12 04:19:25;;;;;;;7.88;4.63;;;;;;;;;;4961916;28;20054;-90
2021/12/12 04:22:02;;;;;;;11.60;4.87;;;;;;;;;;4998876;28;20461;-90
2021/12/12 04:24:33;;;;;;;11.52;6.15;;;;;;;;;;4995798;28;20469;-89
2021/12/12 04:27:05;;;;;;;12.02;5.50;;;;;;;;;;4992416;28;20054;-89
2021/12/12 04:29:38;;;;;;;13.15;4.90;;;;;;;;;;4995331;28;20054;-89
2021/12/12 04:32:09;;;;;;;9.07;4.10;;;;;;;;;;4994491;28;20046;-89
2021/12/12 04:34:41;;;;;;;9.40;4.57;;;;;;;;;;4984302;28;20053;-90
2021/12/12 04:37:17;;;;;;;8.02;4.05;;;;;;;;;;4998831;28;20042;-89
2021/12/12 04:39:49;;;;;;;10.43;4.65;;;;;;;;;;4984843;28;20594;-90
2021/12/12 04:42:23;;;;;;;15.88;4.05;;;;;;;;;;4988905;28;20408;-90
2021/12/12 04:44:54;;;;;;;14.90;4.70;;;;;;;;;;5001151;28;20132;-90
2021/12/12 04:50:17;;;;;;;9.82;4.05;;;;;;;;;;4992976;28;20140;-89
2021/12/12 04:52:52;;;;;;;9.18;4.25;;;;;;;;;;4999830;28;20393;-89
2021/12/12 04:55:24;;;;;;;10.88;3.90;;;;;;;;;;4994254;28;20116;-89
2021/12/12 04:58:00;;;;;;;9.63;3.03;;;;;;;;;;4990360;28;20408;-88
2021/12/12 05:00:32;;;;;;;10.77;3.20;;;;;;;;;;4993914;28;20736;-89
2021/12/12 05:03:08;;;;;;;6.13;2.30;;;;;;;;;;4978465;28;20107;-88
2021/12/12 05:05:43;;;;;;;4.65;2.13;;;;;;;;;;4984731;28;20082;-90
2021/12/12 05:08:16;;;;;;;7.45;1.92;;;;;;;;;;4990047;28;20046;-90
2021/12/12 05:10:48;;;;;;;3.67;1.63;;;;;;;;;;4991501;28;20100;-87
2021/12/12 05:13:32;;;;;;;6.53;2.20;;;;;;;;;;4982380;28;20047;-89
2021/12/12 05:16:04;;;;;;;4.82;2.47;;;;;;;;;;4990645;28;20053;-90
2021/12/12 05:18:37;;;;;;;4.85;2.25;;;;;;;;;;4989566;28;20054;-89
2021/12/12 05:21:13;;;;;;;8.18;2.22;;;;;;;;;;5000752;28;20054;-90
2021/12/12 05:23:52;;;;;;;5.20;2.78;;;;;;;;;;4976493;28;20050;-89
2021/12/12 05:26:27;;;;;;;7.00;2.23;;;;;;;;;;4977059;28;20086;-89
2021/12/12 05:29:01;;;;;;;7.70;2.28;;;;;;;;;;4996800;28;20054;-89
2021/12/12 05:31:34;;;;;;;3.33;1.30;;;;;;;;;;4999831;28;20149;-90
2021/12/12 05:34:32;;;;;;;5.85;2.13;;;;;;;;;;5005539;28;20054;-90
2021/12/12 05:37:02;;;;;;;4.07;1.42;;;;;;;;;;4996393;28;20046;-90
2021/12/12 05:39:37;;;;;;;5.67;2.23;;;;;;;;;;4999117;28;20053;-90
2021/12/12 05:42:07;;;;;;;10.52;2.17;;;;;;;;;;4991833;28;20085;-90
2021/12/12 05:44:39;;;;;;;4.63;2.00;;;;;;;;;;4996331;28;20062;-90
2021/12/12 05:47:11;;;;;;;5.43;1.65;;;;;;;;;;5000203;28;20061;-90
2021/12/12 05:49:41;;;;;;;5.28;1.50;;;;;;;;;;5006615;28;20046;-90
2021/12/12 05:52:14;;;;;;;4.63;2.03;;;;;;;;;;4996873;28;20045;-89
2021/12/12 05:54:46;;;;;;;4.13;2.28;;;;;;;;;;5008626;28;20550;-89
2021/12/12 05:57:23;;;;;;;4.45;1.55;;;;;;;;;;4991907;28;20050;-90
2021/12/12 05:59:58;;;;;;;3.05;1.38;;;;;;;;;;4983549;28;20053;-89
2021/12/12 06:02:34;;;;;;;5.75;2.15;;;;;;;;;;4988596;28;20069;-90
2021/12/12 06:05:05;;;;;;;5.30;1.67;;;;;;;;;;4985904;28;20050;-89
2021/12/12 06:07:38;;;;;;;3.33;1.33;;;;;;;;;;4999526;28;20086;-89
2021/12/12 06:10:13;;;;;;;8.73;2.33;;;;;;;;;;5005576;28;20046;-90
2021/12/12 06:12:47;;;;;;;4.68;1.65;;;;;;;;;;4977226;28;20515;-90
2021/12/12 06:15:18;;;;;;;4.13;1.75;;;;;;;;;;5000093;28;20367;-90
2021/12/12 06:17:49;;;;;;;4.63;1.50;;;;;;;;;;5003358;28;20120;-90
2021/12/12 06:20:22;;;;;;;5.63;2.00;;;;;;;;;;5000450;28;20058;-89
2021/12/12 06:22:56;;;;;;;5.07;1.80;;;;;;;;;;4987312;28;20046;-90
2021/12/12 06:25:36;;;;;;;2.95;1.33;;;;;;;;;;4991183;28;20056;-88
2021/12/12 06:28:13;;;;;;;5.82;1.70;;;;;;;;;;4989270;28;20054;-90
2021/12/12 06:30:44;;;;;;;4.30;1.53;;;;;;;;;;4994771;28;20042;-89
2021/12/12 06:33:39;;;;;;;3.50;1.63;;;;;;;;;;4996324;28;20129;-90
2021/12/12 06:36:32;;;;;;;2.97;1.63;;;;;;;;;;4991181;28;20400;-90
2021/12/12 06:39:05;;;;;;;9.25;2.05;;;;;;;;;;4989244;28;20429;-90
2021/12/12 06:41:38;;;;;;;4.45;1.35;;;;;;;;;;4980413;28;20084;-90
2021/12/12 06:44:13;;;;;;;3.97;1.73;;;;;;;;;;5009411;28;20073;-90
2021/12/12 06:46:46;;;;;;;4.30;1.30;;;;;;;;;;5005302;28;20058;-90
2021/12/12 06:49:17;;;;;;;4.82;1.70;;;;;;;;;;5002417;28;20042;-90
2021/12/12 06:51:49;;;;;;;7.10;1.95;;;;;;;;;;4995429;28;20129;-89
2021/12/12 06:54:23;;;;;;;5.57;2.33;;;;;;;;;;4979237;28;20229;-90
2021/12/12 06:56:56;;;;;;;5.87;2.00;;;;;;;;;;5004717;28;20038;-90
2021/12/12 06:59:27;;;;;;;6.78;2.15;;;;;;;;;;4999204;28;20393;-89
2021/12/12 07:01:58;;;;;;;9.57;1.55;;;;;;;;;;4974291;28;20068;-90
2021/12/12 07:04:29;;;;;;;3.25;1.73;;;;;;;;;;5006286;28;20050;-90
2021/12/12 07:07:00;;;;;;;3.17;1.08;;;;;;;;;;4988142;28;20050;-90
2021/12/12 07:09:35;;;;;;;5.90;2.20;;;;;;;;;;5004018;28;20128;-90
2021/12/12 07:12:06;;;;;;;4.30;1.75;;;;;;;;;;4988684;28;20058;-90
2021/12/12 07:14:41;;;;;;;10.40;2.25;;;;;;;;;;4990438;28;20049;-89
2021/12/12 07:17:18;;;;;;;9.25;1.35;;;;;;;;;;4990498;28;20042;-92
2021/12/12 07:19:51;;;;;;;5.97;1.20;;;;;;;;;;4965434;28;20070;-89
2021/12/12 07:22:22;;;;;;;3.90;1.70;;;;;;;;;;4964500;28;20055;-90
2021/12/12 07:24:52;;;;;;;3.30;1.42;;;;;;;;;;4965967;28;20074;-90
2021/12/12 07:27:21;;;;;;;3.38;1.60;;;;;;;;;;4945253;28;20059;-86
2021/12/12 07:29:49;;;;;;;3.53;1.65;;;;;;;;;;4949187;28;20043;-87
2021/12/12 07:32:20;;;;;;;3.28;1.45;;;;;;;;;;4947709;28;20046;-87
2021/12/12 07:34:52;;;;;;;6.73;1.80;;;;;;;;;;4945487;28;20058;-87
2021/12/12 07:37:30;;;;;;;3.55;1.58;;;;;;;;;;4935510;28;20517;-87
2021/12/12 07:39:59;;;;;;;4.15;1.75;;;;;;;;;;4950177;28;20055;-88
2021/12/12 07:42:29;;;;;;;4.65;2.15;;;;;;;;;;4950039;28;20055;-88
2021/12/12 07:45:01;;;;;;;4.53;1.80;;;;;;;;;;4952989;28;20055;-87
2021/12/12 07:47:32;;;;;;;6.60;2.17;;;;;;;;;;4962019;28;20074;-88
2021/12/12 07:50:01;;;;;;;7.35;2.40;;;;;;;;;;4965661;28;20148;-88
2021/12/12 07:52:33;;;;;;;4.50;1.98;;;;;;;;;;4940252;28;20121;-88
2021/12/12 07:55:02;;;;;;;10.07;2.38;;;;;;;;;;4967342;28;20050;-89
2021/12/12 07:57:32;;;;;;;8.90;2.17;;;;;;;;;;4955228;28;20054;-89
2021/12/12 08:00:03;;;;;;;4.10;1.90;;;;;;;;;;4953397;28;20063;-90
2021/12/12 08:02:41;;;;;;;3.75;1.58;;;;;;;;;;4953398;28;20125;-86
2021/12/12 08:05:13;;;;;;;6.18;1.80;;;;;;;;;;4952011;28;20540;-88
2021/12/12 08:07:44;;;;;;;5.43;2.58;;;;;;;;;;4952371;28;20057;-89
2021/12/12 08:10:14;;;;;;;6.78;1.65;;;;;;;;;;4972561;28;20047;-88
2021/12/12 08:12:46;;;;;;;3.20;1.43;;;;;;;;;;4956295;28;20129;-88
2021/12/12 08:15:17;;;;;;;6.68;1.77;;;;;;;;;;4959588;28;20757;-87
2021/12/12 08:17:48;;;;;;;7.43;2.25;;;;;;;;;;4969056;28;20047;-88
2021/12/12 08:20:18;;;;;;;4.55;1.60;;;;;;;;;;4979314;28;20054;-87
2021/12/12 08:22:49;;;;;;;3.63;2.35;;;;;;;;;;4959604;28;20050;-90
2021/12/12 08:25:20;;;;;;;3.80;1.70;;;;;;;;;;4972010;28;20059;-87
2021/12/12 08:27:49;;;;;;;5.10;1.67;;;;;;;;;;4977713;28;20493;-87
2021/12/12 08:30:44;;;;;;;4.65;1.55;;;;;;;;;;4985583;28;20058;-87
2021/12/12 08:33:15;;;;;;;3.90;1.50;;;;;;;;;;4968110;28;20508;-89
2021/12/12 08:35:46;;;;;;;4.90;1.50;;;;;;;;;;5000557;28;20054;-88
2021/12/12 08:38:18;;;;;;;3.73;1.67;;;;;;;;;;4980176;28;20469;-87
2021/12/12 08:40:49;;;;;;;4.32;1.75;;;;;;;;;;4969263;28;20504;-86
2021/12/12 08:43:20;;;;;;;4.32;1.67;;;;;;;;;;4973271;28;20090;-88
2021/12/12 08:45:51;;;;;;;5.93;2.05;;;;;;;;;;4967465;28;20082;-86
2021/12/12 08:48:23;;;;;;;5.43;1.75;;;;;;;;;;4973440;28;20085;-86
2021/12/12 08:50:54;;;;;;;3.67;1.87;;;;;;;;;;4971537;28;20056;-85
2021/12/12 08:56:41;;;;;;;3.75;1.50;;;;;;;;;;4974798;28;20065;-86
2021/12/12 08:59:16;;;;;;;4.78;1.50;;;;;;;;;;4971218;28;20050;-87
2021/12/12 09:01:49;;;;;;;5.47;1.85;;;;;;;;;;4979972;28;20054;-86
2021/12/12 09:04:23;;;;;;;4.77;2.20;;;;;;;;;;4992695;28;20088;-86
2021/12/12 09:07:01;;;;;;;5.13;2.03;;;;;;;;;;4976083;28;20050;-86
2021/12/12 09:09:32;;;;;;;6.38;2.13;;;;;;;;;;4972422;28;20506;-85
2021/12/12 09:12:02;;;;;;;3.80;1.35;;;;;;;;;;4973457;28;20153;-86
2021/12/12 09:14:33;;;;;;;5.57;1.65;;;;;;;;;;4978186;28;20056;-87
2021/12/12 09:17:05;;;;;;;6.47;1.40;;;;;;;;;;4991551;28;20226;-84
2021/12/12 09:19:38;;;;;;;7.53;2.13;;;;;;;;;;4969336;28;20046;-87
2021/12/12 09:22:18;;;;;;;4.78;1.77;;;;;;;;;;4991842;28;20077;-88
2021/12/12 09:24:54;;;;;;;5.03;1.80;;;;;;;;;;4976680;28;20061;-89
2021/12/12 09:27:27;;;;;;;4.05;1.45;;;;;;;;;;4976995;28;20132;-89
2021/12/12 09:29:58;;;;;;;3.33;1.60;;;;;;;;;;4977715;28;20057;-87
2021/12/12 09:32:30;;;;;;;3.25;1.45;;;;;;;;;;4977808;28;20047;-84
2021/12/12 09:35:05;;;;;;;8.55;2.53;;;;;;;;;;4985202;28;20054;-86
2021/12/12 09:38:02;;;;;;;3.60;1.55;;;;;;;;;;4981829;28;20137;-84
2021/12/12 09:41:07;;;;;;;3.88;1.40;;;;;;;;;;4982927;28;20042;-88
2021/12/12 09:43:44;;;;;;;4.57;2.00;;;;;;;;;;4984431;28;20113;-86
2021/12/12 09:46:27;;;;;;;3.72;1.70;;;;;;;;;;4990608;28;20417;-86
2021/12/12 09:52:16;;;;;;;4.72;1.80;;;;;;;;;;4983311;28;20130;-87
2021/12/12 09:54:56;;;;;;;10.77;1.98;;;;;;;;;;4970901;28;20054;-85
2021/12/12 09:57:28;;;;;;;5.40;1.73;;;;;;;;;;4972796;28;20051;-85
2021/12/12 10:00:02;;;;;;;4.30;1.70;;;;;;;;;;4961574;28;20046;-84
2021/12/12 10:02:48;;;;;;;3.90;1.48;;;;;;;;;;4987455;28;20452;-86
2021/12/12 10:05:25;;;;;;;4.47;2.30;;;;;;;;;;4973984;28;20046;-85
2021/12/12 10:10:59;;;;;;;5.57;1.90;;;;;;;;;;4974899;28;20437;-86
2021/12/12 10:13:32;;;;;;;7.00;2.40;;;;;;;;;;4978261;28;20050;-86
2021/12/12 10:16:08;;;;;;;4.68;2.10;;;;;;;;;;4979671;28;20101;-87
2021/12/12 10:18:43;;;;;;;3.67;2.10;;;;;;;;;;4957991;28;20114;-82
2021/12/12 10:21:38;;;;;;;8.27;1.65;;;;;;;;;;4975618;28;20050;-86
2021/12/12 10:24:24;;;;;;;3.50;1.57;;;;;;;;;;4959200;28;20058;-86
2021/12/12 10:27:01;;;;;;;7.32;2.35;;;;;;;;;;4981582;28;20493;-86
2021/12/12 10:29:35;;;;;;;4.68;2.00;;;;;;;;;;4981916;28;20050;-86
2021/12/12 10:32:06;;;;;;;5.78;2.00;;;;;;;;;;4975087;28;20064;-86
2021/12/12 10:34:40;;;;;;;5.95;1.50;;;;;;;;;;4975104;28;20112;-85
2021/12/12 10:37:11;;;;;;;5.70;1.67;;;;;;;;;;4979290;28;20119;-86
2021/12/12 10:39:42;;;;;;;3.70;1.52;;;;;;;;;;4971541;28;20086;-85
2021/12/12 10:42:16;;;;;;;3.63;1.35;;;;;;;;;;4981812;28;20097;-86
2021/12/12 10:44:49;;;;;;;6.47;1.38;;;;;;;;;;4981470;28;20050;-85
2021/12/12 10:47:30;;;;;;;3.70;1.35;;;;;;;;;;4982008;28;20050;-86
2021/12/12 10:50:04;;;;;;;3.83;1.30;;;;;;;;;;4979478;28;20050;-86
2021/12/12 10:52:35;;;;;;;5.05;1.63;;;;;;;;;;4974854;28;20131;-86
2021/12/12 10:55:13;;;;;;;10.25;1.92;;;;;;;;;;4984109;28;20092;-84
2021/12/12 11:00:55;;;;;;;4.80;1.33;;;;;;;;;;4973226;28;20058;-84
2021/12/12 11:03:28;;;;;;;3.73;1.47;;;;;;;;;;4967788;28;20058;-84
2021/12/12 11:05:59;;;;;;;5.38;1.52;;;;;;;;;;4971495;28;20134;-84
2021/12/12 11:08:32;;;;;;;3.67;1.50;;;;;;;;;;4983350;28;20104;-85
2021/12/12 11:11:11;;;;;;;5.93;1.33;;;;;;;;;;4972559;28;20054;-85
2021/12/12 11:13:43;;;;;;;3.08;1.17;;;;;;;;;;4972414;28;20050;-86
2021/12/12 11:16:21;;;;;;;2.83;1.03;;;;;;;;;;4974373;28;20102;-85
2021/12/12 11:18:58;;;;;;;5.00;1.70;;;;;;;;;;4961261;28;20098;-86
2021/12/12 11:21:34;;;;;;;3.95;1.50;;;;;;;;;;4968047;28;20062;-84
2021/12/12 11:24:05;;;;;;;4.43;1.48;;;;;;;;;;4969638;28;20051;-85
2021/12/12 11:26:40;;;;;;;4.43;1.65;;;;;;;;;;4961133;28;20125;-85
2021/12/12 11:29:21;;;;;;;6.37;1.70;;;;;;;;;;4969040;28;20142;-85
2021/12/12 11:31:54;;;;;;;4.10;1.50;;;;;;;;;;4956229;28;20438;-85
2021/12/12 11:34:45;;;;;;;4.68;1.67;;;;;;;;;;4954338;28;20161;-85
2021/12/12 11:37:17;;;;;;;6.13;1.92;;;;;;;;;;4953737;28;20055;-86
2021/12/12 11:39:50;;;;;;;6.90;1.80;;;;;;;;;;4959619;28;20556;-85
2021/12/12 11:42:23;;;;;;;3.73;1.70;;;;;;;;;;4955027;28;20179;-85
2021/12/12 11:45:01;;;;;;;4.03;1.48;;;;;;;;;;4954268;28;20125;-84
2021/12/12 11:47:47;;;;;;;7.28;2.00;;;;;;;;;;4937841;28;20064;-86
2021/12/12 11:50:23;;;;;;;7.47;2.05;;;;;;;;;;4952813;28;20513;-86
2021/12/12 11:52:57;;;;;;;8.85;2.00;;;;;;;;;;4954771;28;20046;-86
2021/12/12 11:55:27;;;;;;;3.53;1.50;;;;;;;;;;4957322;28;20462;-85
2021/12/12 11:58:18;;;;;;;4.03;1.73;;;;;;;;;;4967297;28;20085;-85
2021/12/12 12:01:10;;;;;;;5.65;1.73;;;;;;;;;;4965770;28;20078;-85
2021/12/12 12:04:09;;;;;;;6.97;1.88;;;;;;;;;;4952580;28;20126;-83
2021/12/12 12:06:42;;;;;;;8.00;2.47;;;;;;;;;;4940248;28;20058;-86
2021/12/12 12:09:35;;;;;;;3.67;1.60;;;;;;;;;;4957650;28;20149;-86
2021/12/12 12:12:55;;;;;;;5.40;1.30;;;;;;;;;;4935129;28;20501;-84
2021/12/12 12:15:30;;;;;;;4.43;1.52;;;;;;;;;;4948466;28;20054;-84
2021/12/12 12:18:05;;;;;;;5.80;1.60;;;;;;;;;;4964575;28;20054;-87
2021/12/12 12:20:41;;;;;;;5.45;1.33;;;;;;;;;;4949476;28;20126;-86
2021/12/12 12:23:17;;;;;;;5.87;2.33;;;;;;;;;;4953293;28;20089;-85
2021/12/12 12:29:06;;;;;;;3.92;1.40;;;;;;;;;;4954987;28;20088;-87
2021/12/12 12:31:57;;;;;;;4.60;1.98;;;;;;;;;;4953728;28;20054;-87
2021/12/12 12:34:45;;;;;;;5.30;2.15;;;;;;;;;;4950174;28;20066;-85
2021/12/12 12:37:49;;;;;;;5.00;1.83;;;;;;;;;;4948436;28;20058;-87
2021/12/12 12:40:43;;;;;;;5.30;1.85;;;;;;;;;;4952993;28;20476;-86
2021/12/12 12:43:49;;;;;;;4.88;1.70;;;;;;;;;;4942867;28;20055;-84
2021/12/12 12:46:43;;;;;;;3.25;1.70;;;;;;;;;;4955489;28;20075;-84
2021/12/12 12:52:56;;;;;;;3.90;1.83;;;;;;;;;;4963370;28;20090;-85
2021/12/12 12:55:27;;;;;;;3.92;1.55;;;;;;;;;;4963112;28;20514;-86
2021/12/12 12:58:10;;;;;;;2.63;1.00;;;;;;;;;;4958204;28;20493;-86
2021/12/12 13:00:42;;;;;;;3.65;1.35;;;;;;;;;;4947156;28;20058;-85
2021/12/12 13:03:37;;;;;;;4.45;1.70;;;;;;;;;;4960878;28;20571;-85
2021/12/12 13:06:28;;;;;;;3.93;1.63;;;;;;;;;;4946772;28;20522;-86
2021/12/12 13:09:26;;;;;;;7.15;1.92;;;;;;;;;;4918009;28;20063;-86
2021/12/12 13:12:29;;;;;;;4.28;1.33;;;;;;;;;;4968105;28;20094;-85
2021/12/12 13:15:07;;;;;;;3.67;1.77;;;;;;;;;;4945358;28;20058;-85
2021/12/12 13:17:57;;;;;;;3.78;1.80;;;;;;;;;;4962862;28;20054;-85
2021/12/12 13:20:35;;;;;;;3.60;1.40;;;;;;;;;;4970194;28;20052;-85
2021/12/12 13:23:18;;;;;;;5.93;1.73;;;;;;;;;;4984800;28;20057;-86
2021/12/12 13:29:03;;;;;;;7.60;1.17;;;;;;;;;;4970693;28;20073;-86
2021/12/12 13:31:39;;;;;;;5.55;1.70;;;;;;;;;;4956149;28;20054;-85
2021/12/12 13:34:16;;;;;;;4.50;1.60;;;;;;;;;;4977995;28;20512;-87
2021/12/12 13:36:50;;;;;;;7.20;2.38;;;;;;;;;;4968350;28;20043;-85
2021/12/12 13:39:25;;;;;;;4.40;1.65;;;;;;;;;;4970527;28;20475;-85
2021/12/12 13:42:12;;;;;;;4.38;1.60;;;;;;;;;;4979945;28;20166;-85
2021/12/12 13:45:04;;;;;;;3.53;1.55;;;;;;;;;;4979940;28;20178;-85
2021/12/12 13:47:52;;;;;;;5.03;1.80;;;;;;;;;;4967859;28;20460;-86
2021/12/12 13:50:27;;;;;;;4.22;1.55;;;;;;;;;;4973371;28;20054;-86
2021/12/12 13:53:02;;;;;;;6.43;1.75;;;;;;;;;;4982189;28;20488;-84
2021/12/12 13:55:33;;;;;;;3.35;1.90;;;;;;;;;;4974772;28;20077;-85
2021/12/12 13:58:06;;;;;;;4.47;1.58;;;;;;;;;;4981606;28;20053;-85
2021/12/12 14:00:40;;;;;;;5.47;2.10;;;;;;;;;;4985717;28;20042;-84
2021/12/12 14:03:14;;;;;;;5.63;2.10;;;;;;;;;;4974149;28;20392;-84
2021/12/12 14:05:46;;;;;;;4.72;1.80;;;;;;;;;;4988016;28;20459;-83
2021/12/12 14:08:18;;;;;;;10.38;2.08;;;;;;;;;;4983142;28;20038;-86
2021/12/12 14:10:49;;;;;;;4.88;2.15;;;;;;;;;;4948490;28;20085;-87
2021/12/12 14:13:20;;;;;;;5.50;2.10;;;;;;;;;;4970039;28;20050;-86
2021/12/12 14:16:15;;;;;;;3.35;1.60;;;;;;;;;;4995525;28;20049;-85
2021/12/12 14:18:56;;;;;;;4.40;1.67;;;;;;;;;;4951160;28;20066;-86
2021/12/12 14:21:29;;;;;;;4.30;1.73;;;;;;;;;;4951366;28;20063;-86
2021/12/12 14:23:59;;;;;;;4.60;1.90;;;;;;;;;;4945058;28;20580;-86
2021/12/12 14:26:30;;;;;;;4.90;2.23;;;;;;;;;;4957390;28;20078;-89
2021/12/12 14:29:02;;;;;;;3.97;1.70;;;;;;;;;;4954701;28;20050;-91
2021/12/12 14:32:06;;;;;;;6.15;1.90;;;;;;;;;;4969830;28;20063;-89
2021/12/12 14:34:42;;;;;;;4.60;1.88;;;;;;;;;;4972886;28;20585;-90
2021/12/12 14:37:19;;;;;;;4.53;1.83;;;;;;;;;;4942990;28;20039;-87
2021/12/12 14:39:49;;;;;;;7.17;2.20;;;;;;;;;;4956445;28;20082;-88
2021/12/12 14:42:24;;;;;;;3.80;1.33;;;;;;;;;;4968487;28;20129;-89
2021/12/12 14:45:05;;;;;;;5.35;1.70;;;;;;;;;;4961642;28;20050;-87
2021/12/12 14:47:38;;;;;;;4.35;2.03;;;;;;;;;;4951380;28;20584;-86
2021/12/12 14:50:12;;;;;;;4.22;1.65;;;;;;;;;;4950848;28;20055;-87
2021/12/12 14:52:43;;;;;;;4.97;1.70;;;;;;;;;;4962837;28;20047;-86
2021/12/12 14:55:18;;;;;;;5.45;1.80;;;;;;;;;;4968742;28;20053;-89
2021/12/12 14:57:57;;;;;;;5.38;1.88;;;;;;;;;;4949877;28;20061;-89
2021/12/12 15:00:37;;;;;;;5.70;1.80;;;;;;;;;;4944648;28;20043;-88
2021/12/12 15:03:22;;;;;;;4.43;2.05;;;;;;;;;;4947418;28;20054;-88
2021/12/12 15:05:58;;;;;;;4.03;1.70;;;;;;;;;;4945463;28;20086;-92
2021/12/12 15:08:32;;;;;;;5.80;2.15;;;;;;;;;;4955487;28;20039;-92
2021/12/12 15:11:07;;;;;;;5.28;1.98;;;;;;;;;;4958747;28;20552;-88
2021/12/12 15:17:04;;;;;;;3.90;2.00;;;;;;;;;;4958142;28;20053;-90
2021/12/12 15:19:45;;;;;;;3.67;1.50;;;;;;;;;;4972553;28;20051;-89
2021/12/12 15:22:53;;;;;;;4.63;1.73;;;;;;;;;;4981989;28;20481;-91
2021/12/12 15:25:55;;;;;;;4.13;1.92;;;;;;;;;;4973477;28;20054;-89
2021/12/12 15:28:30;;;;;;;7.47;2.08;;;;;;;;;;5000665;28;20060;-88
2021/12/12 15:31:39;;;;;;;5.53;2.55;;;;;;;;;;4988586;28;20816;-90
2021/12/12 15:37:13;;;;;;;4.95;2.25;;;;;;;;;;4980822;28;20042;-92
2021/12/12 15:39:52;;;;;;;5.97;2.13;;;;;;;;;;4991717;28;20485;-90
2021/12/12 15:42:29;;;;;;;6.18;2.10;;;;;;;;;;4984582;28;20138;-91
2021/12/12 15:45:00;;;;;;;3.88;2.00;;;;;;;;;;5005698;28;20057;-89
2021/12/12 15:47:42;;;;;;;4.97;1.90;;;;;;;;;;5005854;28;20053;-90
2021/12/12 15:50:21;;;;;;;4.03;1.85;;;;;;;;;;4988226;28;20060;-90
2021/12/12 15:52:54;;;;;;;7.25;1.83;;;;;;;;;;4988665;28;20041;-89
2021/12/12 15:58:34;;;;;;;3.17;1.58;;;;;;;;;;4997599;28;20041;-89
2021/12/12 16:01:10;;;;;;;4.43;1.90;;;;;;;;;;4986348;28;20404;-89
2021/12/12 16:04:01;;;;;;;5.88;2.10;;;;;;;;;;4996348;28;20057;-89
2021/12/12 16:07:51;;;;;;;5.00;2.03;;;;;;;;;;4989275;28;20046;-88
2021/12/12 16:10:43;;;;;;;4.63;1.90;;;;;;;;;;4990719;28;20058;-89
2021/12/12 16:14:18;;;;;;;4.90;2.25;;;;;;;;;;5001771;28;20480;-87
2021/12/12 16:17:13;;;;;;;8.90;2.30;;;;;;;;;;4989819;28;20077;-87
2021/12/12 16:27:45;;;;;;;5.60;2.53;;;;;;;;;;4898569;29;20064;-87
2021/12/12 16:31:13;;;;;;;5.63;2.60;;;;;;;;;;4893970;29;20051;-86
2021/12/12 16:38:24;;;;;;;5.80;1.92;;;;;;;;;;4862344;29;20131;-89
2021/12/12 16:40:57;;;;;;;4.25;1.85;;;;;;;;;;4892083;29;20112;-89
2021/12/12 16:43:29;;;;;;;3.97;2.10;;;;;;;;;;4893606;29;20096;-86
2021/12/12 16:46:09;;;;;;;5.85;1.77;;;;;;;;;;4896118;29;20967;-88
2021/12/12 16:49:02;;;;;;;5.23;2.30;;;;;;;;;;4903274;29;20063;-88